createdAt,value
2018-06-15T00:00:58.565Z,64.05
2018-06-15T00:03:29.150Z,64.60
2018-06-15T00:05:59.273Z,64.77
2018-06-15T00:08:29.959Z,64.37
2018-06-15T00:11:00.696Z,64.57
2018-06-15T00:13:31.314Z,64.49
2018-06-15T00:16:02.010Z,64.36
2018-06-15T00:18:32.655Z,64.28
2018-06-15T00:21:03.362Z,65.11
2018-06-15T00:23:34.040Z,64.91
2018-06-15T00:26:05.794Z,64.56
2018-06-15T00:28:36.594Z,64.50
2018-06-15T00:31:07.702Z,64.63
2018-06-15T00:33:38.301Z,64.44
2018-06-15T00:36:09.013Z,65.49
2018-06-15T00:38:39.673Z,64.60
2018-06-15T00:41:10.577Z,64.14
2018-06-15T00:43:41.174Z,65.25
2018-06-15T00:46:11.802Z,65.75
2018-06-15T00:48:42.393Z,65.40
2018-06-15T00:51:13.510Z,65.10
2018-06-15T00:53:43.997Z,65.05
2018-06-15T00:56:14.715Z,64.49
2018-06-15T00:58:45.448Z,65.27
2018-06-15T01:01:15.920Z,65.58
2018-06-15T01:03:46.081Z,66.14
2018-06-15T01:06:16.778Z,65.97
2018-06-15T01:08:47.425Z,65.43
2018-06-15T01:11:18.058Z,65.17
2018-06-15T01:13:48.781Z,65.22
2018-06-15T01:16:19.298Z,64.66
2018-06-15T01:18:50.397Z,64.50
2018-06-15T01:21:20.953Z,64.29
2018-06-15T01:23:51.837Z,63.78
2018-06-15T01:26:22.637Z,64.53
2018-06-15T01:28:52.968Z,65.08
2018-06-15T01:31:23.554Z,64.81
2018-06-15T01:33:54.488Z,64.28
2018-06-15T01:36:25.177Z,64.29
2018-06-15T01:38:56.144Z,64.90
2018-06-15T01:41:26.842Z,64.23
2018-06-15T01:43:57.461Z,64.30
2018-06-15T01:46:27.609Z,64.44
2018-06-15T01:48:58.734Z,64.42
2018-06-15T01:51:28.873Z,63.53
2018-06-15T01:53:59.846Z,63.56
2018-06-15T01:56:30.014Z,63.62
2018-06-15T01:59:00.165Z,63.31
2018-06-15T02:01:30.667Z,63.98
2018-06-15T02:04:02.384Z,64.57
2018-06-15T02:06:32.990Z,65.88
2018-06-15T02:09:03.898Z,65.82
2018-06-15T02:11:34.482Z,66.42
2018-06-15T02:14:06.257Z,66.92
2018-06-15T02:16:36.364Z,66.33
2018-06-15T02:19:07.261Z,67.45
2018-06-15T02:21:37.917Z,67.28
2018-06-15T02:24:08.609Z,66.54
2018-06-15T02:26:39.093Z,65.93
2018-06-15T02:29:09.740Z,65.77
2018-06-15T02:31:40.490Z,67.08
2018-06-15T02:34:11.580Z,67.34
2018-06-15T02:36:42.193Z,67.22
2018-06-15T02:39:13.049Z,66.85
2018-06-15T02:41:43.530Z,66.58
2018-06-15T02:44:14.306Z,66.60
2018-06-15T02:46:44.937Z,67.97
2018-06-15T02:49:15.673Z,69.13
2018-06-15T02:51:46.426Z,68.62
2018-06-15T02:54:16.993Z,67.72
2018-06-15T02:56:47.834Z,66.47
2018-06-15T02:59:18.674Z,66.67
2018-06-15T03:01:49.266Z,67.69
2018-06-15T03:04:19.929Z,67.05
2018-06-15T03:06:50.574Z,66.34
2018-06-15T03:09:21.587Z,65.94
2018-06-15T03:14:21.962Z,67.02
2018-06-15T03:16:52.613Z,66.75
2018-06-15T03:19:23.374Z,66.18
2018-06-15T03:21:53.925Z,66.54
2018-06-15T03:24:23.887Z,66.46
2018-06-15T03:26:54.531Z,66.49
2018-06-15T03:29:25.397Z,67.08
2018-06-15T03:31:55.479Z,67.95
2018-06-15T03:34:26.305Z,67.94
2018-06-15T03:36:57.002Z,69.13
2018-06-15T03:39:27.546Z,67.80
2018-06-15T03:41:58.214Z,67.07
2018-06-15T03:44:29.214Z,66.96
2018-06-15T03:46:59.847Z,67.33
2018-06-15T03:49:30.797Z,68.14
2018-06-15T03:52:01.430Z,67.97
2018-06-15T03:54:32.101Z,68.66
2018-06-15T03:57:02.633Z,68.10
2018-06-15T03:59:33.369Z,67.57
2018-06-15T04:02:04.183Z,67.59
2018-06-15T04:04:35.019Z,67.54
2018-06-15T04:07:05.790Z,66.39
2018-06-15T04:09:36.621Z,68.27
2018-06-15T04:12:07.350Z,68.18
2018-06-15T04:14:38.231Z,66.82
2018-06-15T04:17:09.078Z,66.57
2018-06-15T04:19:39.820Z,65.92
2018-06-15T04:22:10.245Z,66.48
2018-06-15T04:24:40.941Z,64.93
2018-06-15T04:27:11.609Z,65.90
2018-06-15T04:29:42.443Z,65.71
2018-06-15T04:32:13.093Z,65.51
2018-06-15T04:34:43.754Z,65.80
2018-06-15T04:37:13.982Z,66.76
2018-06-15T04:39:44.087Z,66.75
2018-06-15T04:42:14.932Z,64.91
2018-06-15T04:44:45.762Z,64.52
2018-06-15T04:47:16.809Z,64.40
2018-06-15T04:49:47.504Z,63.54
2018-06-15T04:52:18.173Z,62.09
2018-06-15T04:54:48.340Z,60.03
2018-06-15T04:57:19.037Z,58.78
2018-06-15T04:59:49.133Z,56.96
2018-06-15T05:02:19.888Z,57.44
2018-06-15T05:04:49.881Z,57.25
2018-06-15T05:07:20.587Z,56.29
2018-06-15T05:09:51.049Z,56.15
2018-06-15T05:12:21.906Z,55.92
2018-06-15T05:14:52.734Z,56.27
2018-06-15T05:17:23.742Z,57.39
2018-06-15T05:19:54.390Z,56.51
2018-06-15T05:22:25.286Z,54.53
2018-06-15T05:24:55.932Z,55.89
2018-06-15T05:27:26.821Z,55.64
2018-06-15T05:29:57.507Z,55.87
2018-06-15T05:32:28.350Z,57.80
2018-06-15T05:34:58.985Z,57.18
2018-06-15T05:37:30.050Z,55.78
2018-06-15T05:40:00.742Z,56.77
2018-06-15T05:42:31.434Z,55.31
2018-06-15T05:45:02.185Z,55.44
2018-06-15T05:47:32.985Z,54.37
2018-06-15T05:50:03.678Z,56.91
2018-06-15T05:52:34.725Z,55.20
2018-06-15T05:55:05.447Z,52.62
2018-06-15T05:57:36.270Z,51.96
2018-06-15T06:00:07.177Z,51.61
2018-06-15T06:02:37.956Z,52.55
2018-06-15T06:05:08.703Z,52.19
2018-06-15T06:07:39.377Z,49.47
2018-06-15T06:10:10.049Z,53.11
2018-06-15T06:12:40.877Z,50.17
2018-06-15T06:15:11.574Z,48.01
2018-06-15T06:17:41.928Z,48.29
2018-06-15T06:20:12.702Z,47.49
2018-06-15T06:22:43.654Z,46.12
2018-06-15T06:25:13.835Z,46.56
2018-06-15T06:27:44.794Z,44.49
2018-06-15T06:30:15.241Z,45.07
2018-06-15T06:32:45.521Z,44.10
2018-06-15T06:35:16.173Z,42.89
2018-06-15T06:37:47.105Z,45.13
2018-06-15T06:40:17.729Z,43.50
2018-06-15T06:42:48.473Z,43.48
2018-06-15T06:45:19.214Z,43.71
2018-06-15T06:47:49.869Z,45.06
2018-06-15T06:50:20.573Z,44.45
2018-06-15T06:52:51.373Z,40.79
2018-06-15T06:55:21.995Z,40.50
2018-06-15T06:57:52.709Z,40.73
2018-06-15T07:00:23.405Z,39.64
2018-06-15T07:02:54.646Z,43.56
2018-06-15T07:05:24.657Z,44.67
2018-06-15T07:07:55.641Z,41.97
2018-06-15T07:10:26.354Z,41.64
2018-06-15T07:12:57.093Z,42.91
2018-06-15T07:15:27.222Z,39.81
2018-06-15T07:17:58.044Z,41.84
2018-06-15T07:20:28.867Z,40.08
2018-06-15T07:23:00.541Z,40.06
2018-06-15T07:25:31.205Z,40.04
2018-06-15T07:28:01.790Z,42.18
2018-06-15T07:30:31.885Z,39.00
2018-06-15T07:33:02.650Z,41.76
2018-06-15T07:35:33.157Z,43.37
2018-06-15T07:38:03.967Z,43.50
2018-06-15T07:40:34.621Z,44.87
2018-06-15T07:43:05.287Z,45.22
2018-06-15T07:45:35.954Z,45.07
2018-06-15T07:48:06.778Z,44.84
2018-06-15T07:50:37.433Z,47.01
2018-06-15T07:53:08.265Z,45.36
2018-06-15T07:55:38.813Z,45.94
2018-06-15T07:58:09.632Z,46.48
2018-06-15T08:00:40.357Z,48.93
2018-06-15T08:03:11.195Z,48.93
2018-06-15T08:05:41.753Z,49.22
2018-06-15T08:08:12.746Z,49.76
2018-06-15T08:10:43.225Z,49.72
2018-06-15T08:13:13.277Z,50.30
2018-06-15T08:15:43.945Z,52.22
2018-06-15T08:18:14.670Z,51.71
2018-06-15T08:20:45.313Z,52.51
2018-06-15T08:23:16.074Z,52.70
2018-06-15T08:25:46.665Z,50.72
2018-06-15T08:28:17.169Z,49.31
2018-06-15T08:30:47.749Z,48.08
2018-06-15T08:33:18.563Z,51.50
2018-06-15T08:35:49.242Z,51.65
2018-06-15T08:38:20.252Z,52.91
2018-06-15T08:40:50.769Z,53.88
2018-06-15T08:43:21.442Z,52.69
2018-06-15T08:45:51.669Z,51.76
2018-06-15T08:48:21.956Z,51.47
2018-06-15T08:50:52.799Z,51.87
2018-06-15T08:53:23.777Z,50.95
2018-06-15T08:55:54.444Z,51.50
2018-06-15T08:58:25.309Z,52.31
2018-06-15T09:00:56.047Z,52.42
2018-06-15T09:03:26.914Z,52.24
2018-06-15T09:05:57.767Z,53.18
2018-06-15T09:08:28.406Z,56.03
2018-06-15T09:10:59.070Z,58.32
2018-06-15T09:13:29.786Z,60.88
2018-06-15T09:16:00.584Z,59.00
2018-06-15T09:18:31.362Z,60.65
2018-06-15T09:21:01.506Z,63.23
2018-06-15T09:23:32.552Z,62.98
2018-06-15T09:26:03.215Z,63.23
2018-06-15T09:28:34.358Z,64.72
2018-06-15T09:31:04.995Z,61.07
2018-06-15T09:33:35.681Z,60.27
2018-06-15T09:36:06.185Z,60.58
2018-06-15T09:38:36.336Z,61.54
2018-06-15T09:41:06.925Z,60.97
2018-06-15T09:43:37.611Z,61.83
2018-06-15T09:46:08.189Z,63.03
2018-06-15T09:48:42.829Z,62.95
2018-06-15T09:51:14.262Z,62.22
2018-06-15T09:53:45.049Z,60.21
2018-06-15T09:56:15.711Z,60.01
2018-06-15T09:58:46.357Z,58.12
2018-06-15T10:01:16.989Z,58.06
2018-06-15T10:03:47.726Z,54.89
2018-06-15T10:06:18.418Z,55.70
2018-06-15T10:08:49.160Z,54.30
2018-06-15T10:11:19.886Z,52.55
2018-06-15T10:13:50.978Z,52.28
2018-06-15T10:16:21.500Z,53.03
2018-06-15T10:18:52.179Z,51.81
2018-06-15T10:21:22.377Z,47.46
2018-06-15T10:23:52.874Z,48.87
2018-06-15T10:26:23.851Z,45.75
2018-06-15T10:28:54.486Z,46.10
2018-06-15T10:31:25.258Z,42.39
2018-06-15T10:33:55.998Z,40.10
2018-06-15T10:36:26.986Z,39.76
2018-06-15T10:38:57.593Z,45.66
2018-06-15T10:41:28.277Z,36.08
2018-06-15T10:43:58.360Z,39.25
2018-06-15T10:46:29.393Z,37.18
2018-06-15T10:49:00.122Z,37.05
2018-06-15T10:51:31.214Z,39.31
2018-06-15T10:54:01.866Z,37.72
2018-06-15T10:56:32.581Z,39.18
2018-06-15T10:59:02.485Z,34.91
2018-06-15T11:01:32.605Z,37.08
2018-06-15T11:04:03.320Z,34.29
2018-06-15T11:06:33.953Z,36.00
2018-06-15T11:09:06.782Z,37.71
2018-06-15T11:11:37.310Z,36.43
2018-06-15T11:14:08.006Z,37.73
2018-06-15T11:16:38.797Z,39.13
2018-06-15T11:19:09.611Z,36.13
2018-06-15T11:21:40.281Z,39.13
2018-06-15T11:24:11.039Z,39.47
2018-06-15T11:26:41.790Z,40.33
2018-06-15T11:29:12.662Z,40.41
2018-06-15T11:31:43.302Z,40.36
2018-06-15T11:34:14.032Z,38.67
2018-06-15T11:36:44.685Z,39.49
2018-06-15T11:39:15.341Z,41.79
2018-06-15T11:41:45.453Z,41.46
2018-06-15T11:44:16.053Z,40.06
2018-06-15T11:46:46.814Z,40.37
2018-06-15T11:49:17.804Z,42.09
2018-06-15T11:51:48.450Z,38.21
2018-06-15T11:54:19.542Z,38.08
2018-06-15T11:56:50.094Z,37.59
2018-06-15T11:59:20.830Z,34.65
2018-06-15T12:01:51.595Z,33.36
2018-06-15T12:04:21.939Z,34.87
2018-06-15T12:06:52.743Z,35.06
2018-06-15T12:09:23.658Z,35.67
2018-06-15T12:11:54.277Z,35.62
2018-06-15T12:14:25.201Z,36.27
2018-06-15T12:16:55.678Z,35.14
2018-06-15T12:19:26.415Z,34.62
2018-06-15T12:21:57.129Z,34.76
2018-06-15T12:24:27.889Z,34.86
2018-06-15T12:26:58.369Z,35.54
2018-06-15T12:29:29.121Z,35.01
2018-06-15T12:31:59.133Z,32.00
2018-06-15T12:34:30.083Z,34.69
2018-06-15T12:37:00.735Z,31.21
2018-06-15T12:39:31.463Z,29.95
2018-06-15T12:42:02.239Z,30.64
2018-06-15T12:44:38.221Z,30.27
2018-06-15T12:47:08.870Z,28.70
2018-06-15T12:49:39.617Z,28.59
2018-06-15T12:52:11.086Z,29.25
2018-06-15T12:54:41.901Z,29.46
2018-06-15T12:57:12.611Z,29.68
2018-06-15T12:59:43.530Z,32.10
2018-06-15T13:02:14.355Z,30.88
2018-06-15T13:04:45.347Z,30.76
2018-06-15T13:07:15.577Z,31.66
2018-06-15T13:09:46.697Z,32.31
2018-06-15T13:12:17.385Z,31.49
2018-06-15T13:14:48.117Z,31.76
2018-06-15T13:17:18.726Z,32.36
2018-06-15T13:19:49.005Z,32.69
2018-06-15T13:22:19.621Z,35.71
2018-06-15T13:24:50.380Z,34.80
2018-06-15T13:27:20.961Z,34.33
2018-06-15T13:29:51.910Z,36.79
2018-06-15T13:32:22.385Z,38.00
2018-06-15T13:34:53.497Z,39.29
2018-06-15T13:37:25.149Z,43.93
2018-06-15T13:39:56.102Z,46.15
2018-06-15T13:42:26.324Z,44.28
2018-06-15T13:44:57.370Z,42.79
2018-06-15T13:47:27.886Z,43.41
2018-06-15T13:49:58.616Z,44.96
2018-06-15T13:52:28.716Z,46.05
2018-06-15T13:54:59.382Z,47.51
2018-06-15T13:57:29.527Z,48.59
2018-06-15T14:00:00.134Z,50.02
2018-06-15T14:02:30.724Z,49.78
2018-06-15T14:05:01.769Z,50.49
2018-06-15T14:07:32.457Z,48.93
2018-06-15T14:10:04.382Z,51.24
2018-06-15T14:12:35.147Z,53.35
2018-06-15T14:15:05.993Z,53.13
2018-06-15T14:17:36.650Z,53.59
2018-06-15T14:20:07.530Z,52.68
2018-06-15T14:22:38.267Z,50.68
2018-06-15T14:25:09.189Z,50.29
2018-06-15T14:27:39.534Z,49.17
2018-06-15T14:30:11.052Z,49.29
2018-06-15T14:32:41.767Z,48.79
2018-06-15T14:35:12.793Z,47.43
2018-06-15T14:37:42.893Z,48.05
2018-06-15T14:40:13.737Z,47.75
2018-06-15T14:42:44.245Z,48.61
2018-06-15T14:45:15.386Z,47.25
2018-06-15T14:47:46.195Z,46.18
2018-06-15T14:50:17.030Z,46.66
2018-06-15T14:52:47.854Z,47.30
2018-06-15T14:55:18.573Z,48.22
2018-06-15T14:57:49.093Z,48.62
2018-06-15T15:00:19.790Z,48.85
2018-06-15T15:02:50.450Z,49.52
2018-06-15T15:05:21.481Z,51.37
2018-06-15T15:07:52.101Z,50.74
2018-06-15T15:10:22.737Z,50.81
2018-06-15T15:12:53.474Z,52.34
2018-06-15T15:15:24.529Z,52.96
2018-06-15T15:17:54.727Z,51.90
2018-06-15T15:20:25.269Z,53.08
2018-06-15T15:22:55.858Z,52.23
2018-06-15T15:25:26.484Z,51.37
2018-06-15T15:27:57.258Z,50.82
2018-06-15T15:30:28.039Z,51.14
2018-06-15T15:32:58.837Z,48.72
2018-06-15T15:35:31.135Z,47.78
2018-06-15T15:38:01.681Z,47.72
2018-06-15T15:40:32.343Z,52.28
2018-06-15T15:43:03.218Z,54.85
2018-06-15T15:45:33.941Z,58.90
2018-06-15T15:48:04.121Z,57.48
2018-06-15T15:50:34.883Z,56.98
2018-06-15T15:53:05.654Z,58.00
2018-06-15T15:55:36.284Z,59.47
2018-06-15T15:58:07.666Z,58.42
2018-06-15T16:00:38.484Z,57.20
2018-06-15T16:03:09.316Z,56.09
2018-06-15T16:05:39.910Z,54.29
2018-06-15T16:08:10.942Z,53.66
2018-06-15T16:10:41.774Z,54.26
2018-06-15T16:13:12.453Z,55.46
2018-06-15T16:15:43.079Z,56.40
2018-06-15T16:18:13.919Z,55.59
2018-06-15T16:20:44.442Z,54.69
2018-06-15T16:23:15.153Z,53.80
2018-06-15T16:25:45.830Z,53.75
2018-06-15T16:28:16.677Z,51.98
2018-06-15T16:30:47.345Z,52.19
2018-06-15T16:33:18.434Z,53.23
2018-06-15T16:35:49.154Z,53.72
2018-06-15T16:38:20.014Z,53.27
2018-06-15T16:40:50.766Z,53.98
2018-06-15T16:43:21.593Z,53.30
2018-06-15T16:45:52.202Z,53.19
2018-06-15T16:48:22.759Z,52.71
2018-06-15T16:50:52.852Z,52.27
2018-06-15T16:53:23.469Z,52.29
2018-06-15T16:55:54.250Z,52.65
2018-06-15T16:58:25.042Z,52.28
2018-06-15T17:00:55.589Z,52.11
2018-06-15T17:03:26.462Z,52.85
2018-06-15T17:05:57.107Z,52.33
2018-06-15T17:08:28.126Z,53.81
2018-06-15T17:10:58.854Z,53.26
2018-06-15T17:13:29.645Z,53.14
2018-06-15T17:15:59.724Z,51.35
2018-06-15T17:18:30.547Z,52.31
2018-06-15T17:21:01.267Z,50.97
2018-06-15T17:23:32.121Z,52.87
2018-06-15T17:26:02.866Z,51.77
2018-06-15T17:28:33.989Z,53.82
2018-06-15T17:31:04.414Z,54.97
2018-06-15T17:33:35.077Z,55.05
2018-06-15T17:36:05.823Z,55.54
2018-06-15T17:38:36.553Z,57.40
2018-06-15T17:41:06.698Z,57.10
2018-06-15T17:43:37.554Z,56.50
2018-06-15T17:46:08.298Z,56.05
2018-06-15T17:48:39.074Z,54.47
2018-06-15T17:51:09.161Z,53.72
2018-06-15T17:53:39.757Z,53.77
2018-06-15T17:56:10.406Z,54.29
2018-06-15T17:58:41.261Z,53.74
2018-06-15T18:01:11.839Z,56.57
2018-06-15T18:03:42.670Z,57.21
2018-06-15T18:06:13.377Z,57.43
2018-06-15T18:08:44.141Z,57.04
2018-06-15T18:11:14.957Z,55.98
2018-06-15T18:13:45.621Z,56.87
2018-06-15T18:16:16.409Z,55.79
2018-06-15T18:18:47.490Z,56.52
2018-06-15T18:21:18.202Z,56.14
2018-06-15T18:23:48.713Z,55.92
2018-06-15T18:26:19.709Z,57.53
2018-06-15T18:28:50.313Z,58.45
2018-06-15T18:31:20.990Z,58.26
2018-06-15T18:33:52.107Z,58.71
2018-06-15T18:36:22.754Z,59.06
2018-06-15T18:38:53.723Z,58.54
2018-06-15T18:41:23.737Z,59.52
2018-06-15T18:43:54.551Z,60.25
2018-06-15T18:46:25.226Z,63.81
2018-06-15T18:48:55.422Z,63.76
2018-06-15T18:51:26.233Z,63.99
2018-06-15T18:53:57.169Z,63.93
2018-06-15T18:56:28.113Z,63.82
2018-06-15T18:58:58.850Z,63.17
2018-06-15T19:01:29.484Z,63.17
2018-06-15T19:04:00.226Z,63.04
2018-06-15T19:06:30.953Z,63.01
2018-06-15T19:09:01.679Z,63.34
2018-06-15T19:11:32.259Z,63.52
2018-06-15T19:14:03.303Z,64.57
2018-06-15T19:16:33.385Z,63.80
2018-06-15T19:19:04.210Z,65.01
2018-06-15T19:21:34.936Z,64.75
2018-06-15T19:24:05.786Z,64.15
2018-06-15T19:26:36.473Z,63.65
2018-06-15T19:29:07.537Z,63.94
2018-06-15T19:31:38.181Z,63.83
2018-06-15T19:34:08.946Z,64.05
2018-06-15T19:36:39.733Z,63.67
2018-06-15T19:39:11.411Z,63.85
2018-06-15T19:41:42.154Z,64.41
2018-06-15T19:44:12.861Z,64.23
2018-06-15T19:46:43.578Z,64.73
2018-06-15T19:49:14.282Z,64.53
2018-06-15T19:51:45.022Z,64.48
2018-06-15T19:54:16.282Z,64.31
2018-06-15T19:56:46.853Z,64.01
2018-06-15T19:59:17.526Z,63.37
2018-06-15T20:01:48.152Z,63.38
2018-06-15T20:04:18.897Z,63.74
2018-06-15T20:06:49.421Z,62.29
2018-06-15T20:09:20.102Z,61.93
2018-06-15T20:11:50.237Z,62.14
2018-06-15T20:14:20.803Z,62.98
2018-06-15T20:16:51.040Z,62.53
2018-06-15T20:19:21.827Z,62.66
2018-06-15T20:21:52.447Z,62.36
2018-06-15T20:24:23.238Z,62.61
2018-06-15T20:26:54.385Z,62.19
2018-06-15T20:29:25.028Z,62.38
2018-06-15T20:31:56.146Z,62.78
2018-06-15T20:34:26.865Z,63.13
2018-06-15T20:36:57.634Z,62.23
2018-06-15T20:39:28.321Z,62.93
2018-06-15T20:41:59.166Z,62.54
2018-06-15T20:44:29.962Z,62.71
2018-06-15T20:47:00.926Z,63.02
2018-06-15T20:49:31.447Z,62.83
2018-06-15T20:52:02.075Z,63.36
2018-06-15T20:54:32.711Z,63.11
2018-06-15T20:57:03.745Z,62.97
2018-06-15T20:59:34.301Z,63.62
2018-06-15T21:02:05.198Z,63.51
2018-06-15T21:04:35.634Z,63.61
2018-06-15T21:07:06.722Z,63.93
2018-06-15T21:09:37.107Z,63.85
2018-06-15T21:12:07.989Z,64.24
2018-06-15T21:14:38.695Z,63.68
2018-06-15T21:17:09.530Z,63.80
2018-06-15T21:19:40.242Z,63.64
2018-06-15T21:22:11.061Z,63.82
2018-06-15T21:24:41.766Z,63.25
2018-06-15T21:27:12.218Z,62.66
2018-06-15T21:29:42.873Z,63.77
2018-06-15T21:32:13.497Z,63.52
2018-06-15T21:34:44.190Z,63.69
2018-06-15T21:37:15.194Z,63.30
2018-06-15T21:39:45.912Z,63.42
2018-06-15T21:42:16.725Z,64.13
2018-06-15T21:44:47.371Z,64.31
2018-06-15T21:47:18.251Z,64.19
2018-06-15T21:49:48.993Z,64.06
2018-06-15T21:52:19.866Z,63.99
2018-06-15T21:54:50.518Z,62.95
2018-06-15T21:57:21.197Z,61.63
2018-06-15T21:59:51.802Z,62.25
2018-06-15T22:02:22.566Z,61.69
2018-06-15T22:04:53.406Z,62.60
2018-06-15T22:07:24.129Z,62.81
2018-06-15T22:09:54.973Z,61.94
2018-06-15T22:12:25.214Z,62.45
2018-06-15T22:14:55.893Z,62.60
2018-06-15T22:17:26.438Z,63.06
2018-06-15T22:19:57.443Z,63.46
2018-06-15T22:22:28.005Z,62.88
2018-06-15T22:24:58.689Z,63.85
2018-06-15T22:27:29.382Z,63.91
2018-06-15T22:29:59.972Z,64.43
2018-06-15T22:32:30.593Z,64.85
2018-06-15T22:35:01.293Z,64.36
2018-06-15T22:37:31.945Z,64.15
2018-06-15T22:40:03.070Z,64.01
2018-06-15T22:42:33.710Z,64.76
2018-06-15T22:45:04.809Z,64.46
2018-06-15T22:47:35.513Z,64.31
2018-06-15T22:50:06.227Z,64.69
2018-06-15T22:52:36.930Z,65.06
2018-06-15T22:55:07.195Z,65.32
2018-06-15T22:57:37.782Z,66.25
2018-06-15T23:00:08.805Z,66.11
2018-06-15T23:02:39.499Z,66.35
2018-06-15T23:05:10.368Z,66.68
2018-06-15T23:07:41.074Z,66.16
2018-06-15T23:10:11.758Z,67.40
2018-06-15T23:12:42.342Z,66.16
2018-06-15T23:15:13.326Z,66.05
2018-06-15T23:17:44.001Z,65.79
2018-06-15T23:20:14.781Z,66.17
2018-06-15T23:22:45.457Z,67.51
2018-06-15T23:25:16.166Z,67.34
2018-06-15T23:27:46.841Z,66.18
2018-06-15T23:30:17.933Z,66.09
2018-06-15T23:32:48.017Z,66.48
2018-06-15T23:35:18.768Z,66.01
2018-06-15T23:37:49.522Z,66.69
2018-06-15T23:40:20.141Z,66.36
2018-06-15T23:42:50.232Z,65.66
2018-06-15T23:45:20.782Z,65.57
2018-06-15T23:47:51.486Z,66.32
2018-06-15T23:50:22.033Z,65.75
2018-06-15T23:52:53.073Z,66.17
2018-06-15T23:57:53.256Z,66.22
